createdAt,value
2022-11-28T00:01:18.312Z,15.82
2022-11-28T00:03:45.820Z,14.68
2022-11-28T00:06:13.416Z,15.00
2022-11-28T00:08:40.974Z,17.80
2022-11-28T00:11:10.643Z,14.63
2022-11-28T00:13:38.158Z,15.65
2022-11-28T00:16:07.338Z,17.25
2022-11-28T00:18:35.022Z,15.10
2022-11-28T00:21:02.855Z,16.75
2022-11-28T00:23:30.638Z,19.83
2022-11-28T00:25:59.011Z,18.15
2022-11-28T00:28:27.943Z,15.95
2022-11-28T00:30:55.447Z,17.05
2022-11-28T00:33:22.904Z,16.15
2022-11-28T00:35:50.436Z,18.70
2022-11-28T00:38:17.973Z,21.50
2022-11-28T00:40:45.454Z,18.45
2022-11-28T00:43:12.956Z,20.48
2022-11-28T00:45:41.827Z,19.13
2022-11-28T00:48:09.327Z,17.00
2022-11-28T00:50:36.806Z,19.65
2022-11-28T00:53:04.253Z,16.55
2022-11-28T00:55:31.737Z,18.85
2022-11-28T00:57:59.195Z,17.17
2022-11-28T01:00:26.686Z,18.60
2022-11-28T01:02:55.563Z,18.92
2022-11-28T01:05:29.015Z,17.25
2022-11-28T01:07:56.584Z,18.55
2022-11-28T01:10:24.141Z,16.88
2022-11-28T01:12:51.621Z,18.75
2022-11-28T01:15:19.096Z,20.83
2022-11-28T01:17:46.539Z,22.65
2022-11-28T01:20:15.796Z,21.08
2022-11-28T01:22:43.285Z,17.67
2022-11-28T01:25:10.792Z,21.23
2022-11-28T01:27:38.332Z,22.73
2022-11-28T01:30:06.571Z,19.10
2022-11-28T01:32:34.071Z,17.15
2022-11-28T01:35:01.513Z,19.38
2022-11-28T01:37:31.329Z,18.02
2022-11-28T01:39:58.796Z,19.45
2022-11-28T01:42:26.282Z,18.15
2022-11-28T01:45:08.916Z,20.42
2022-11-28T01:47:36.586Z,18.80
2022-11-28T01:50:05.200Z,20.02
2022-11-28T01:52:34.836Z,22.42
2022-11-28T01:55:02.748Z,20.30
2022-11-28T01:57:30.351Z,19.77
2022-11-28T01:59:59.653Z,17.33
2022-11-28T02:02:30.428Z,21.92
2022-11-28T02:04:59.136Z,20.27
2022-11-28T02:07:26.803Z,20.38
2022-11-28T02:09:56.068Z,20.63
2022-11-28T02:12:29.103Z,20.88
2022-11-28T02:15:04.057Z,18.88
2022-11-28T02:17:39.411Z,15.32
2022-11-28T02:20:21.802Z,18.65
2022-11-28T02:22:51.703Z,20.85
2022-11-28T02:25:43.070Z,20.05
2022-11-28T02:28:29.598Z,18.67
2022-11-28T02:31:02.973Z,17.33
2022-11-28T02:33:33.273Z,20.00
2022-11-28T02:36:05.711Z,21.63
2022-11-28T02:38:40.142Z,17.38
2022-11-28T02:41:09.176Z,17.48
2022-11-28T02:43:41.676Z,18.05
2022-11-28T02:46:13.955Z,19.75
2022-11-28T02:48:46.923Z,18.10
2022-11-28T02:51:16.166Z,15.82
2022-11-28T02:53:45.656Z,17.25
2022-11-28T02:56:13.624Z,18.85
2022-11-28T02:58:41.201Z,20.02
2022-11-28T03:01:13.821Z,16.75
2022-11-28T03:03:49.656Z,19.80
2022-11-28T03:06:22.297Z,18.20
2022-11-28T03:09:03.685Z,20.48
2022-11-28T03:11:37.435Z,22.33
2022-11-28T03:14:09.278Z,18.80
2022-11-28T03:16:41.734Z,21.92
2022-11-28T03:19:11.724Z,19.52
2022-11-28T03:21:41.082Z,21.08
2022-11-28T03:24:12.424Z,17.42
2022-11-28T03:26:44.889Z,19.10
2022-11-28T03:29:14.698Z,17.98
2022-11-28T03:31:43.250Z,22.70
2022-11-28T03:34:14.702Z,18.90
2022-11-28T03:39:10.509Z,19.00
2022-11-28T03:41:40.035Z,21.83
2022-11-28T03:44:09.269Z,19.00
2022-11-28T03:46:37.983Z,23.48
2022-11-28T03:49:09.332Z,21.77
2022-11-28T03:51:39.233Z,17.40
2022-11-28T03:54:09.346Z,20.00
2022-11-28T03:56:40.367Z,21.50
2022-11-28T03:59:10.444Z,27.77
2022-11-28T04:01:45.302Z,22.20
2022-11-28T04:04:17.423Z,23.45
2022-11-28T04:06:52.909Z,20.50
2022-11-28T04:09:22.876Z,22.42
2022-11-28T04:11:52.908Z,19.65
2022-11-28T04:14:23.056Z,24.88
2022-11-28T04:16:54.272Z,20.17
2022-11-28T04:19:24.572Z,26.00
2022-11-28T04:21:55.735Z,24.35
2022-11-28T04:24:24.561Z,22.40
2022-11-28T04:26:54.907Z,22.95
2022-11-28T04:29:24.438Z,21.98
2022-11-28T04:31:54.177Z,21.13
2022-11-28T04:34:23.068Z,20.85
2022-11-28T04:36:51.128Z,20.88
2022-11-28T04:39:20.883Z,23.13
2022-11-28T04:41:50.438Z,18.77
2022-11-28T04:44:21.930Z,22.85
2022-11-28T04:46:52.636Z,23.33
2022-11-28T04:49:20.198Z,22.67
2022-11-28T04:51:51.435Z,21.45
2022-11-28T04:54:23.909Z,22.10
2022-11-28T04:56:53.890Z,23.58
2022-11-28T04:59:22.539Z,26.02
2022-11-28T05:01:50.920Z,22.67
2022-11-28T05:04:18.499Z,22.33
2022-11-28T05:06:46.251Z,21.60
2022-11-28T05:09:14.080Z,24.77
2022-11-28T05:11:42.964Z,21.90
2022-11-28T05:14:10.481Z,23.63
2022-11-28T05:16:38.049Z,25.92
2022-11-28T05:19:05.605Z,20.70
2022-11-28T05:21:33.102Z,19.17
2022-11-28T05:24:00.854Z,21.85
2022-11-28T05:26:32.060Z,24.13
2022-11-28T05:29:00.957Z,21.67
2022-11-28T05:31:28.937Z,26.17
2022-11-28T05:33:56.854Z,22.58
2022-11-28T05:36:24.552Z,22.92
2022-11-28T05:38:52.017Z,20.60
2022-11-28T05:41:20.159Z,19.75
2022-11-28T05:43:47.619Z,21.30
2022-11-28T05:46:16.985Z,22.08
2022-11-28T05:48:44.538Z,21.50
2022-11-28T05:51:12.013Z,20.85
2022-11-28T05:53:39.554Z,20.20
2022-11-28T05:56:07.888Z,20.05
2022-11-28T05:58:35.507Z,19.90
2022-11-28T06:01:09.729Z,24.83
2022-11-28T06:03:38.555Z,19.77
2022-11-28T06:06:09.240Z,23.75
2022-11-28T06:08:37.125Z,20.90
2022-11-28T06:11:04.661Z,22.60
2022-11-28T06:13:32.108Z,22.13
2022-11-28T06:15:59.587Z,22.33
2022-11-28T06:18:27.195Z,21.95
2022-11-28T06:20:55.995Z,21.52
2022-11-28T06:23:24.224Z,22.00
2022-11-28T06:25:51.740Z,20.95
2022-11-28T06:28:19.218Z,22.40
2022-11-28T06:30:46.699Z,20.85
2022-11-28T06:33:14.276Z,23.73
2022-11-28T06:35:41.827Z,24.33
2022-11-28T06:38:14.186Z,22.38
2022-11-28T06:40:42.242Z,25.95
2022-11-28T06:43:09.729Z,26.23
2022-11-28T06:45:37.246Z,24.20
2022-11-28T06:48:04.790Z,24.83
2022-11-28T06:50:33.560Z,27.48
2022-11-28T06:53:01.018Z,24.02
2022-11-28T06:55:30.321Z,23.77
2022-11-28T06:57:57.806Z,24.50
2022-11-28T07:00:25.556Z,23.52
2022-11-28T07:02:53.056Z,23.42
2022-11-28T07:05:21.844Z,20.67
2022-11-28T07:07:54.185Z,24.35
2022-11-28T07:10:22.236Z,24.38
2022-11-28T07:12:55.442Z,23.35
2022-11-28T07:15:23.280Z,22.38
2022-11-28T07:17:51.032Z,24.13
2022-11-28T07:20:18.601Z,21.25
2022-11-28T07:22:47.666Z,22.50
2022-11-28T07:25:15.946Z,23.70
2022-11-28T07:27:43.560Z,27.10
2022-11-28T07:30:12.697Z,25.02
2022-11-28T07:32:40.445Z,26.63
2022-11-28T07:35:08.939Z,24.63
2022-11-28T07:37:36.564Z,24.88
2022-11-28T07:40:04.908Z,26.77
2022-11-28T07:42:32.394Z,24.17
2022-11-28T07:44:59.865Z,23.08
2022-11-28T07:47:28.878Z,24.95
2022-11-28T07:49:56.521Z,25.42
2022-11-28T07:52:23.999Z,25.77
2022-11-28T07:54:51.486Z,24.70
2022-11-28T07:57:18.992Z,25.08
2022-11-28T07:59:46.446Z,24.98
2022-11-28T08:02:14.059Z,26.50
2022-11-28T08:04:49.405Z,30.27
2022-11-28T08:07:19.676Z,26.85
2022-11-28T08:09:47.209Z,27.02
2022-11-28T08:12:14.654Z,27.02
2022-11-28T08:14:42.589Z,23.50
2022-11-28T08:17:10.611Z,26.95
2022-11-28T08:19:38.117Z,23.40
2022-11-28T08:22:06.925Z,26.80
2022-11-28T08:24:34.380Z,23.40
2022-11-28T08:27:01.846Z,24.27
2022-11-28T08:29:29.383Z,26.98
2022-11-28T08:31:56.922Z,24.92
2022-11-28T08:34:24.530Z,22.33
2022-11-28T08:36:52.004Z,25.45
2022-11-28T08:39:25.077Z,26.10
2022-11-28T08:41:52.996Z,22.08
2022-11-28T08:44:20.445Z,26.23
2022-11-28T08:46:47.884Z,21.35
2022-11-28T08:49:15.971Z,21.40
2022-11-28T08:51:43.497Z,25.40
2022-11-28T08:54:11.039Z,24.80
2022-11-28T08:56:39.859Z,23.95
2022-11-28T08:59:07.789Z,23.70
2022-11-28T09:01:35.467Z,20.92
2022-11-28T09:04:03.000Z,23.48
2022-11-28T09:06:30.555Z,22.40
2022-11-28T09:08:58.787Z,20.65
2022-11-28T09:11:26.261Z,22.90
2022-11-28T09:13:55.646Z,22.13
2022-11-28T09:16:23.235Z,21.50
2022-11-28T09:18:51.080Z,20.13
2022-11-28T09:21:18.571Z,21.45
2022-11-28T09:23:46.058Z,22.40
2022-11-28T09:26:14.643Z,22.38
2022-11-28T09:28:42.312Z,20.85
2022-11-28T09:31:12.313Z,22.23
2022-11-28T09:33:39.907Z,22.15
2022-11-28T09:36:08.084Z,24.10
2022-11-28T09:38:35.790Z,21.17
2022-11-28T09:41:03.739Z,22.67
2022-11-28T09:43:32.668Z,20.63
2022-11-28T09:46:01.209Z,22.63
2022-11-28T09:48:34.737Z,25.23
2022-11-28T09:51:06.194Z,25.27
2022-11-28T09:53:38.746Z,22.65
2022-11-28T09:56:10.361Z,22.30
2022-11-28T09:58:40.951Z,25.10
2022-11-28T10:01:15.196Z,22.75
2022-11-28T10:03:46.393Z,24.23
2022-11-28T10:06:16.964Z,27.80
2022-11-28T10:08:53.089Z,24.17
2022-11-28T10:11:27.971Z,24.30
2022-11-28T10:14:08.151Z,28.05
2022-11-28T10:16:42.543Z,23.80
2022-11-28T10:19:31.699Z,23.90
2022-11-28T10:22:04.831Z,24.70
2022-11-28T10:24:39.242Z,27.15
2022-11-28T10:27:07.106Z,26.55
2022-11-28T10:29:39.518Z,23.15
2022-11-28T10:32:07.416Z,21.73
2022-11-28T10:34:39.213Z,21.50
2022-11-28T10:37:08.493Z,21.73
2022-11-28T10:39:44.466Z,22.70
2022-11-28T10:42:16.144Z,25.80
2022-11-28T10:44:58.503Z,19.25
2022-11-28T10:47:31.688Z,22.48
2022-11-28T10:50:03.681Z,23.10
2022-11-28T10:52:35.450Z,21.00
2022-11-28T10:55:12.412Z,25.33
2022-11-28T10:57:44.293Z,25.90
2022-11-28T11:00:13.211Z,24.63
2022-11-28T11:02:42.678Z,22.55
2022-11-28T11:05:15.278Z,23.63
2022-11-28T11:07:47.375Z,20.30
2022-11-28T11:10:16.462Z,23.90
2022-11-28T11:12:44.074Z,23.67
2022-11-28T11:15:19.560Z,24.77
2022-11-28T11:17:47.095Z,24.48
2022-11-28T11:20:33.648Z,23.40
2022-11-28T11:23:01.836Z,21.30
2022-11-28T11:25:30.218Z,24.98
2022-11-28T11:28:00.798Z,21.42
2022-11-28T11:30:29.438Z,21.67
2022-11-28T11:32:57.471Z,20.70
2022-11-28T11:35:25.809Z,21.92
2022-11-28T11:37:55.988Z,20.52
2022-11-28T11:40:26.602Z,20.45
2022-11-28T11:42:55.462Z,23.92
2022-11-28T11:45:33.290Z,25.80
2022-11-28T11:50:29.493Z,19.95
2022-11-28T11:53:05.530Z,20.13
2022-11-28T11:55:34.754Z,19.52
2022-11-28T11:58:05.852Z,20.95
2022-11-28T12:00:36.049Z,17.92
2022-11-28T12:03:06.187Z,18.90
2022-11-28T12:05:59.361Z,15.70
2022-11-28T12:08:32.624Z,19.67
2022-11-28T12:11:07.864Z,20.20
2022-11-28T12:13:35.458Z,19.45
2022-11-28T12:16:06.356Z,19.55
2022-11-28T12:18:38.106Z,20.65
2022-11-28T12:21:13.297Z,17.02
2022-11-28T12:23:53.331Z,16.77
2022-11-28T12:26:24.724Z,19.88
2022-11-28T12:29:00.988Z,20.08
2022-11-28T12:31:32.096Z,20.10
2022-11-28T12:36:29.748Z,19.30
2022-11-28T12:39:10.257Z,19.17
2022-11-28T12:41:47.285Z,22.05
2022-11-28T12:44:20.879Z,15.93
2022-11-28T12:46:54.894Z,18.45
2022-11-28T12:49:25.223Z,24.83
2022-11-28T12:51:57.003Z,18.50
2022-11-28T12:54:34.835Z,21.63
2022-11-28T12:59:34.091Z,21.67
2022-11-28T13:02:09.655Z,21.63
2022-11-28T13:04:58.201Z,20.83
2022-11-28T13:07:30.143Z,19.33
2022-11-28T13:10:05.118Z,23.88
2022-11-28T13:12:42.272Z,23.60
2022-11-28T13:15:12.984Z,22.15
2022-11-28T13:17:43.858Z,19.60
2022-11-28T13:20:17.375Z,21.27
2022-11-28T13:22:50.488Z,23.05
2022-11-28T13:25:22.702Z,21.20
2022-11-28T13:27:52.235Z,22.30
2022-11-28T13:30:22.110Z,21.85
2022-11-28T13:32:53.721Z,25.30
2022-11-28T13:35:21.537Z,21.33
2022-11-28T13:40:44.011Z,22.85
2022-11-28T13:43:14.205Z,21.00
2022-11-28T13:45:43.305Z,20.83
2022-11-28T13:51:32.067Z,21.15
2022-11-28T13:54:18.851Z,21.90
2022-11-28T13:56:48.984Z,22.58
2022-11-28T13:59:18.298Z,23.05
2022-11-28T14:01:46.670Z,24.05
2022-11-28T14:04:15.134Z,22.45
2022-11-28T14:06:44.918Z,21.15
2022-11-28T14:09:20.571Z,25.27
2022-11-28T14:11:55.967Z,22.63
2022-11-28T14:14:50.512Z,25.58
2022-11-28T14:17:24.718Z,28.08
2022-11-28T14:19:58.578Z,23.30
2022-11-28T14:22:35.853Z,24.30
2022-11-28T14:25:06.368Z,24.67
2022-11-28T14:27:37.215Z,26.30
2022-11-28T14:30:05.149Z,26.58
2022-11-28T14:32:34.721Z,27.00
2022-11-28T14:35:02.809Z,27.08
2022-11-28T14:37:57.735Z,28.92
2022-11-28T14:40:43.654Z,27.60
2022-11-28T14:43:28.321Z,30.23
2022-11-28T14:46:10.638Z,28.90
2022-11-28T14:48:42.069Z,29.38
2022-11-28T14:51:10.008Z,31.98
2022-11-28T14:53:38.872Z,35.15
2022-11-28T14:56:10.559Z,30.50
2022-11-28T14:58:39.455Z,28.98
2022-11-28T15:01:11.490Z,30.83
2022-11-28T15:03:42.349Z,29.98
2022-11-28T15:06:12.237Z,33.65
2022-11-28T15:08:54.095Z,38.20
2022-11-28T15:11:36.395Z,34.05
2022-11-28T15:14:11.404Z,34.45
2022-11-28T15:16:46.634Z,30.63
2022-11-28T15:19:21.530Z,29.67
2022-11-28T15:21:50.813Z,34.97
2022-11-28T15:24:23.873Z,34.75
2022-11-28T15:26:57.043Z,30.73
2022-11-28T15:29:27.486Z,33.53
2022-11-28T15:31:56.759Z,33.58
2022-11-28T15:34:25.990Z,32.50
2022-11-28T15:36:54.032Z,33.63
2022-11-28T15:39:29.411Z,38.10
2022-11-28T15:41:58.168Z,28.92
2022-11-28T15:44:27.524Z,31.02
2022-11-28T15:46:55.101Z,33.28
2022-11-28T15:49:26.752Z,37.58
2022-11-28T15:51:55.216Z,33.13
2022-11-28T15:54:27.024Z,33.38
2022-11-28T15:56:58.152Z,33.35
2022-11-28T15:59:27.123Z,35.03
2022-11-28T16:01:59.257Z,31.95
2022-11-28T16:04:27.387Z,31.38
2022-11-28T16:06:57.019Z,33.40
2022-11-28T16:09:27.403Z,29.40
2022-11-28T16:11:55.429Z,29.58
2022-11-28T16:14:25.150Z,34.95
2022-11-28T16:16:54.385Z,39.90
2022-11-28T16:19:24.574Z,34.92
2022-11-28T16:21:53.674Z,32.08
2022-11-28T16:24:25.817Z,31.95
2022-11-28T16:26:59.647Z,36.30
2022-11-28T16:29:34.514Z,35.47
2022-11-28T16:32:10.432Z,37.38
2022-11-28T16:34:45.259Z,37.53
2022-11-28T16:37:13.089Z,36.67
2022-11-28T16:39:40.933Z,35.67
2022-11-28T16:42:14.860Z,37.55
2022-11-28T16:44:42.417Z,39.00
2022-11-28T16:47:24.410Z,36.35
2022-11-28T16:50:04.677Z,42.72
2022-11-28T16:52:43.657Z,46.55
2022-11-28T16:55:26.083Z,38.55
2022-11-28T16:57:55.498Z,37.28
2022-11-28T17:00:23.082Z,38.83
2022-11-28T17:02:53.923Z,37.97
2022-11-28T17:05:21.510Z,45.47
2022-11-28T17:07:49.101Z,40.92
2022-11-28T17:10:16.801Z,41.38
2022-11-28T17:12:44.381Z,42.05
2022-11-28T17:15:15.365Z,41.08
2022-11-28T17:17:43.122Z,48.15
2022-11-28T17:20:13.949Z,44.95
2022-11-28T17:22:43.223Z,38.17
2022-11-28T17:25:14.894Z,46.20
2022-11-28T17:27:42.432Z,44.08
2022-11-28T17:30:14.063Z,42.67
2022-11-28T17:32:41.710Z,38.85
2022-11-28T17:35:14.602Z,39.15
2022-11-28T17:37:42.151Z,48.30
2022-11-28T17:40:27.566Z,44.78
2022-11-28T17:42:55.107Z,45.50
2022-11-28T17:45:22.961Z,42.58
2022-11-28T17:47:50.531Z,42.83
2022-11-28T17:50:19.529Z,44.55
2022-11-28T17:52:47.101Z,47.03
2022-11-28T17:55:14.622Z,45.25
2022-11-28T17:57:42.215Z,48.90
2022-11-28T18:00:10.386Z,43.33
2022-11-28T18:02:38.045Z,45.83
2022-11-28T18:05:06.235Z,45.58
2022-11-28T18:07:35.233Z,43.00
2022-11-28T18:10:02.847Z,51.30
2022-11-28T18:12:30.405Z,47.80
2022-11-28T18:14:59.511Z,47.65
2022-11-28T18:17:27.055Z,46.38
2022-11-28T18:19:57.649Z,45.05
2022-11-28T18:22:25.326Z,50.70
2022-11-28T18:24:54.277Z,50.28
2022-11-28T18:27:21.854Z,48.58
2022-11-28T18:29:49.423Z,48.88
2022-11-28T18:32:16.989Z,45.83
2022-11-28T18:34:44.697Z,45.67
2022-11-28T18:37:12.279Z,50.60
2022-11-28T18:39:39.800Z,53.80
2022-11-28T18:42:08.759Z,45.55
2022-11-28T18:44:36.297Z,48.60
2022-11-28T18:47:03.879Z,48.33
2022-11-28T18:49:31.468Z,50.15
2022-11-28T18:51:59.014Z,48.85
2022-11-28T18:54:26.780Z,52.35
2022-11-28T18:56:54.435Z,45.97
2022-11-28T18:59:23.591Z,47.30
2022-11-28T19:01:51.246Z,51.83
2022-11-28T19:04:18.793Z,51.08
2022-11-28T19:06:48.300Z,48.38
2022-11-28T19:09:16.417Z,46.10
2022-11-28T19:11:44.405Z,50.05
2022-11-28T19:14:15.317Z,49.08
2022-11-28T19:16:45.061Z,48.00
2022-11-28T19:19:12.760Z,46.55
2022-11-28T19:21:40.362Z,45.42
2022-11-28T19:24:09.065Z,43.03
2022-11-28T19:26:37.995Z,44.40
2022-11-28T19:29:05.912Z,43.05
2022-11-28T19:31:34.492Z,44.53
2022-11-28T19:34:04.618Z,42.95
2022-11-28T19:36:32.838Z,43.00
2022-11-28T19:39:00.637Z,45.03
2022-11-28T19:41:29.132Z,48.75
2022-11-28T19:43:56.770Z,40.67
2022-11-28T19:46:24.342Z,41.20
2022-11-28T19:48:51.945Z,41.22
2022-11-28T19:51:21.034Z,40.17
2022-11-28T19:53:48.571Z,42.90
2022-11-28T19:56:17.321Z,42.72
2022-11-28T19:58:45.268Z,41.42
2022-11-28T20:01:14.202Z,42.22
2022-11-28T20:03:42.315Z,44.60
2022-11-28T20:06:09.967Z,41.90
2022-11-28T20:08:39.339Z,43.92
2022-11-28T20:11:10.822Z,40.45
2022-11-28T20:13:38.409Z,42.25
2022-11-28T20:16:06.508Z,43.92
2022-11-28T20:18:34.106Z,45.72
2022-11-28T20:21:06.158Z,40.00
2022-11-28T20:23:33.806Z,43.05
2022-11-28T20:26:06.568Z,42.85
2022-11-28T20:28:34.326Z,41.60
2022-11-28T20:31:02.285Z,42.20
2022-11-28T20:33:30.270Z,45.40
2022-11-28T20:36:05.440Z,43.75
2022-11-28T20:38:32.958Z,42.63
2022-11-28T20:41:00.960Z,44.13
2022-11-28T20:43:31.195Z,43.20
2022-11-28T20:46:02.481Z,43.60
2022-11-28T20:50:57.858Z,41.58
2022-11-28T20:53:27.071Z,39.50
2022-11-28T20:55:59.534Z,43.35
2022-11-28T20:58:27.182Z,44.97
2022-11-28T21:00:56.267Z,45.63
2022-11-28T21:03:23.899Z,39.88
2022-11-28T21:05:54.220Z,42.17
2022-11-28T21:08:25.504Z,43.35
2022-11-28T21:10:53.189Z,40.88
2022-11-28T21:13:20.804Z,46.58
2022-11-28T21:15:48.352Z,42.50
2022-11-28T21:18:17.489Z,39.78
2022-11-28T21:20:46.082Z,39.05
2022-11-28T21:23:14.184Z,48.75
2022-11-28T21:25:42.270Z,41.58
2022-11-28T21:28:10.484Z,42.58
2022-11-28T21:30:40.236Z,39.40
2022-11-28T21:33:07.801Z,40.03
2022-11-28T21:35:37.012Z,41.05
2022-11-28T21:38:04.753Z,39.30
2022-11-28T21:40:32.582Z,42.70
2022-11-28T21:43:00.175Z,39.88
2022-11-28T21:45:27.894Z,41.13
2022-11-28T21:47:55.467Z,38.65
2022-11-28T21:50:23.018Z,39.70
2022-11-28T21:52:51.913Z,37.55
2022-11-28T21:55:19.475Z,37.03
2022-11-28T21:57:47.050Z,38.58
2022-11-28T22:00:38.296Z,47.65
2022-11-28T22:03:05.845Z,40.10
2022-11-28T22:05:43.970Z,40.60
2022-11-28T22:08:12.903Z,38.38
2022-11-28T22:10:40.432Z,38.42
2022-11-28T22:13:07.955Z,40.63
2022-11-28T22:15:35.595Z,42.08
2022-11-28T22:18:03.130Z,40.13
2022-11-28T22:20:30.657Z,37.45
2022-11-28T22:22:58.188Z,38.35
2022-11-28T22:25:27.106Z,40.03
2022-11-28T22:27:54.657Z,37.83
2022-11-28T22:30:22.337Z,42.35
2022-11-28T22:32:49.971Z,35.90
2022-11-28T22:35:17.587Z,37.72
2022-11-28T22:37:45.140Z,37.83
2022-11-28T22:40:13.383Z,38.58
2022-11-28T22:42:42.346Z,37.22
2022-11-28T22:45:10.481Z,40.05
2022-11-28T22:47:38.061Z,39.88
2022-11-28T22:50:06.203Z,40.03
2022-11-28T22:52:33.751Z,42.08
2022-11-28T22:55:01.318Z,37.40
2022-11-28T22:57:28.963Z,42.53
2022-11-28T22:59:57.890Z,39.88
2022-11-28T23:02:25.513Z,38.45
2022-11-28T23:04:53.153Z,40.42
2022-11-28T23:07:20.782Z,41.60
2022-11-28T23:09:48.399Z,41.35
2022-11-28T23:12:15.939Z,37.63
2022-11-28T23:14:43.818Z,36.85
2022-11-28T23:17:12.862Z,33.10
2022-11-28T23:19:41.029Z,34.00
2022-11-28T23:22:08.498Z,37.72
2022-11-28T23:24:36.025Z,34.38
2022-11-28T23:27:03.572Z,33.60
2022-11-28T23:29:31.183Z,38.85
2022-11-28T23:31:58.862Z,38.90
2022-11-28T23:34:28.011Z,38.45
2022-11-28T23:36:55.529Z,34.55
2022-11-28T23:39:23.594Z,37.40
2022-11-28T23:41:51.316Z,40.53
2022-11-28T23:44:19.603Z,36.75
2022-11-28T23:46:48.124Z,41.92
2022-11-28T23:49:15.684Z,38.70
2022-11-28T23:51:44.692Z,37.47
2022-11-28T23:54:12.960Z,38.50
2022-11-28T23:56:41.225Z,40.45
2022-11-28T23:59:10.226Z,40.00
